createdAt,value
2022-10-26T00:01:10.528Z,1.95
2022-10-26T00:03:38.217Z,1.70
2022-10-26T00:06:09.695Z,1.80
2022-10-26T00:08:37.182Z,1.87
2022-10-26T00:11:04.562Z,2.10
2022-10-26T00:13:31.728Z,2.12
2022-10-26T00:18:30.370Z,2.65
2022-10-26T00:21:03.530Z,2.03
2022-10-26T00:23:30.906Z,2.70
2022-10-26T00:25:58.130Z,3.35
2022-10-26T00:28:25.075Z,2.78
2022-10-26T00:30:52.187Z,2.40
2022-10-26T00:33:19.232Z,2.47
2022-10-26T00:35:53.813Z,2.85
2022-10-26T00:38:20.998Z,2.10
2022-10-26T00:40:48.198Z,2.53
2022-10-26T00:43:17.479Z,2.17
2022-10-26T00:45:45.798Z,2.03
2022-10-26T00:48:22.485Z,2.10
2022-10-26T00:50:49.392Z,1.67
2022-10-26T00:53:16.398Z,1.95
2022-10-26T00:55:46.978Z,2.10
2022-10-26T00:58:14.124Z,1.90
2022-10-26T01:00:42.240Z,1.70
2022-10-26T01:03:10.812Z,2.50
2022-10-26T01:05:40.702Z,3.37
2022-10-26T01:08:09.076Z,3.55
2022-10-26T01:10:38.449Z,3.60
2022-10-26T01:13:05.844Z,3.97
2022-10-26T01:15:40.716Z,4.93
2022-10-26T01:18:16.178Z,4.70
2022-10-26T01:21:15.288Z,6.40
2022-10-26T01:24:00.498Z,6.57
2022-10-26T01:26:50.161Z,6.12
2022-10-26T01:29:38.478Z,6.05
2022-10-26T01:32:10.897Z,6.40
2022-10-26T01:35:11.052Z,6.10
2022-10-26T01:37:44.173Z,6.85
2022-10-26T01:40:23.569Z,5.78
2022-10-26T01:42:53.687Z,5.47
2022-10-26T01:45:20.616Z,5.30
2022-10-26T01:47:48.524Z,5.25
2022-10-26T01:50:15.756Z,5.53
2022-10-26T01:52:42.624Z,5.50
2022-10-26T01:55:40.915Z,5.53
2022-10-26T02:01:07.168Z,5.15
2022-10-26T02:03:59.961Z,4.55
2022-10-26T02:06:40.265Z,3.90
2022-10-26T02:09:30.048Z,4.20
2022-10-26T02:11:57.415Z,4.50
2022-10-26T02:14:50.842Z,5.37
2022-10-26T02:17:29.120Z,4.25
2022-10-26T02:20:06.832Z,3.30
2022-10-26T02:22:40.656Z,3.00
2022-10-26T02:25:18.502Z,2.80
2022-10-26T02:27:48.342Z,2.75
2022-10-26T02:30:15.478Z,6.00
2022-10-26T02:32:46.558Z,2.53
2022-10-26T02:35:14.958Z,2.03
2022-10-26T02:37:42.558Z,2.40
2022-10-26T02:40:13.946Z,2.97
2022-10-26T02:42:42.538Z,2.17
2022-10-26T02:45:12.586Z,3.70
2022-10-26T02:47:39.518Z,3.92
2022-10-26T02:50:06.798Z,2.45
2022-10-26T02:52:50.191Z,3.40
2022-10-26T02:55:20.069Z,3.87
2022-10-26T02:57:51.452Z,3.40
2022-10-26T03:00:19.010Z,3.17
2022-10-26T03:02:52.491Z,3.22
2022-10-26T03:05:32.694Z,2.25
2022-10-26T03:08:00.584Z,2.00
2022-10-26T03:10:27.547Z,3.78
2022-10-26T03:12:54.681Z,4.20
2022-10-26T03:15:21.951Z,4.75
2022-10-26T03:17:49.085Z,7.12
2022-10-26T03:20:16.289Z,12.68
2022-10-26T03:22:43.141Z,13.48
2022-10-26T03:25:10.221Z,8.38
2022-10-26T03:27:38.089Z,6.68
2022-10-26T03:30:05.791Z,4.78
2022-10-26T03:32:32.663Z,7.32
2022-10-26T03:34:59.524Z,4.25
2022-10-26T03:37:26.507Z,5.53
2022-10-26T03:39:53.364Z,2.70
2022-10-26T03:42:20.258Z,3.58
2022-10-26T03:44:48.449Z,4.40
2022-10-26T03:47:15.321Z,1.60
2022-10-26T03:49:42.214Z,2.83
2022-10-26T03:52:09.108Z,3.35
2022-10-26T03:54:35.962Z,7.30
2022-10-26T03:57:02.865Z,5.65
2022-10-26T03:59:29.712Z,4.20
2022-10-26T04:01:57.898Z,3.50
2022-10-26T04:04:25.319Z,3.40
2022-10-26T04:06:52.234Z,4.53
2022-10-26T04:09:19.204Z,5.37
2022-10-26T04:11:46.065Z,3.53
2022-10-26T04:14:12.948Z,4.15
2022-10-26T04:16:39.796Z,5.65
2022-10-26T04:19:06.671Z,4.70
2022-10-26T04:21:33.633Z,5.47
2022-10-26T04:24:00.485Z,6.72
2022-10-26T04:26:27.583Z,7.15
2022-10-26T04:28:54.552Z,6.90
2022-10-26T04:31:21.620Z,4.47
2022-10-26T04:33:48.525Z,4.37
2022-10-26T04:36:15.414Z,4.72
2022-10-26T04:38:42.226Z,5.50
2022-10-26T04:41:09.052Z,5.60
2022-10-26T04:43:35.921Z,5.28
2022-10-26T04:46:02.806Z,8.07
2022-10-26T04:48:29.747Z,6.07
2022-10-26T04:50:59.910Z,8.43
2022-10-26T04:53:27.500Z,7.20
2022-10-26T04:55:58.775Z,9.38
2022-10-26T04:58:26.259Z,9.30
2022-10-26T05:00:53.217Z,8.80
2022-10-26T05:03:20.110Z,7.55
2022-10-26T05:05:48.034Z,7.37
2022-10-26T05:08:16.038Z,8.38
2022-10-26T05:10:43.161Z,7.15
2022-10-26T05:13:11.023Z,6.20
2022-10-26T05:15:37.904Z,5.80
2022-10-26T05:18:05.957Z,4.53
2022-10-26T05:20:34.603Z,5.07
2022-10-26T05:23:03.732Z,4.93
2022-10-26T05:25:32.604Z,4.45
2022-10-26T05:28:00.308Z,5.65
2022-10-26T05:30:27.978Z,5.80
2022-10-26T05:32:58.839Z,4.18
2022-10-26T05:35:26.375Z,4.95
2022-10-26T05:37:53.946Z,5.40
2022-10-26T05:40:21.210Z,4.28
2022-10-26T05:42:48.460Z,5.10
2022-10-26T05:45:15.616Z,5.35
2022-10-26T05:47:44.920Z,4.50
2022-10-26T05:50:12.369Z,3.15
2022-10-26T05:52:42.415Z,5.07
2022-10-26T05:55:10.894Z,4.55
2022-10-26T05:57:38.397Z,3.78
2022-10-26T06:00:10.626Z,3.87
2022-10-26T06:03:00.435Z,4.80
2022-10-26T06:05:29.076Z,4.60
2022-10-26T06:07:56.312Z,8.80
2022-10-26T06:10:23.533Z,11.20
2022-10-26T06:12:50.893Z,9.32
2022-10-26T06:15:22.042Z,6.50
2022-10-26T06:18:05.772Z,8.52
2022-10-26T06:20:55.385Z,5.70
2022-10-26T06:23:41.491Z,6.43
2022-10-26T06:26:33.146Z,5.57
2022-10-26T06:29:12.952Z,3.50
2022-10-26T06:31:39.866Z,5.05
2022-10-26T06:34:06.743Z,4.37
2022-10-26T06:36:33.673Z,4.95
2022-10-26T06:39:03.897Z,5.35
2022-10-26T06:41:33.092Z,5.60
2022-10-26T06:44:00.261Z,4.82
2022-10-26T06:46:37.947Z,4.00
2022-10-26T06:49:29.430Z,3.80
2022-10-26T06:52:03.399Z,2.92
2022-10-26T06:54:45.455Z,2.83
2022-10-26T06:57:13.538Z,3.12
2022-10-26T06:59:45.330Z,2.97
2022-10-26T07:02:12.384Z,3.05
2022-10-26T07:04:39.382Z,3.22
2022-10-26T07:07:06.244Z,3.37
2022-10-26T07:09:33.127Z,3.40
2022-10-26T07:12:00.123Z,3.65
2022-10-26T07:14:26.976Z,3.15
2022-10-26T07:16:54.625Z,3.30
2022-10-26T07:19:21.497Z,3.35
2022-10-26T07:21:48.432Z,4.35
2022-10-26T07:24:15.361Z,3.55
2022-10-26T07:26:42.261Z,3.62
2022-10-26T07:29:09.076Z,3.28
2022-10-26T07:31:35.960Z,3.37
2022-10-26T07:34:03.140Z,4.15
2022-10-26T07:36:30.322Z,3.33
2022-10-26T07:38:57.140Z,3.72
2022-10-26T07:41:23.982Z,3.58
2022-10-26T07:43:51.001Z,3.60
2022-10-26T07:46:18.897Z,3.53
2022-10-26T07:48:45.804Z,3.97
2022-10-26T07:51:12.876Z,3.50
2022-10-26T07:53:39.732Z,3.70
2022-10-26T07:56:07.295Z,3.85
2022-10-26T07:58:34.334Z,3.70
2022-10-26T08:01:11.937Z,4.05
2022-10-26T08:03:39.053Z,3.92
2022-10-26T08:06:06.347Z,3.40
2022-10-26T08:08:33.637Z,3.33
2022-10-26T08:11:00.513Z,3.67
2022-10-26T08:13:27.405Z,3.50
2022-10-26T08:16:01.707Z,3.80
2022-10-26T08:18:28.703Z,3.37
2022-10-26T08:21:01.831Z,2.92
2022-10-26T08:23:37.083Z,3.03
2022-10-26T08:26:04.353Z,3.20
2022-10-26T08:28:31.443Z,3.17
2022-10-26T08:30:58.597Z,2.55
2022-10-26T08:33:25.870Z,2.92
2022-10-26T08:36:11.759Z,2.62
2022-10-26T08:38:38.579Z,2.50
2022-10-26T08:41:09.474Z,2.50
2022-10-26T08:43:54.712Z,2.60
2022-10-26T08:46:29.172Z,2.53
2022-10-26T08:48:59.670Z,2.25
2022-10-26T08:51:35.579Z,2.12
2022-10-26T08:54:09.926Z,2.50
2022-10-26T08:56:51.003Z,2.37
2022-10-26T08:59:33.956Z,2.20
2022-10-26T09:02:02.891Z,2.33
2022-10-26T09:04:32.057Z,2.40
2022-10-26T09:07:19.341Z,2.17
2022-10-26T09:10:13.848Z,2.10
2022-10-26T09:13:24.056Z,2.12
2022-10-26T09:16:03.187Z,1.95
2022-10-26T09:18:39.252Z,2.30
2022-10-26T09:21:24.875Z,2.90
2022-10-26T09:23:54.834Z,2.40
2022-10-26T09:26:49.415Z,2.30
2022-10-26T09:29:16.249Z,2.53
2022-10-26T09:31:45.697Z,2.65
2022-10-26T09:34:28.354Z,2.30
2022-10-26T09:36:57.835Z,2.47
2022-10-26T09:39:36.421Z,2.60
2022-10-26T09:42:13.070Z,2.30
2022-10-26T09:44:55.996Z,2.35
2022-10-26T09:47:34.141Z,2.25
2022-10-26T09:50:36.764Z,2.92
2022-10-26T09:53:04.047Z,2.30
2022-10-26T09:55:51.477Z,2.30
2022-10-26T09:58:22.524Z,2.22
2022-10-26T10:00:49.431Z,2.53
2022-10-26T10:03:30.266Z,2.22
2022-10-26T10:06:16.312Z,2.47
2022-10-26T10:08:44.037Z,2.50
2022-10-26T10:11:14.807Z,2.28
2022-10-26T10:13:46.069Z,2.70
2022-10-26T10:16:27.569Z,2.62
2022-10-26T10:18:56.657Z,2.50
2022-10-26T10:21:50.190Z,2.60
2022-10-26T10:24:38.291Z,2.40
2022-10-26T10:27:17.422Z,2.15
2022-10-26T10:29:52.224Z,2.35
2022-10-26T10:32:21.879Z,2.20
2022-10-26T10:34:53.822Z,2.58
2022-10-26T10:37:25.046Z,2.53
2022-10-26T10:39:52.434Z,2.42
2022-10-26T10:42:22.603Z,2.47
2022-10-26T10:44:54.469Z,2.30
2022-10-26T10:47:35.678Z,2.10
2022-10-26T10:50:06.636Z,2.17
2022-10-26T10:52:35.438Z,2.40
2022-10-26T10:55:16.561Z,1.90
2022-10-26T10:58:03.242Z,2.25
2022-10-26T11:00:33.762Z,2.30
2022-10-26T11:03:27.822Z,1.95
2022-10-26T11:06:10.953Z,2.10
2022-10-26T11:09:11.132Z,2.03
2022-10-26T11:11:48.795Z,2.17
2022-10-26T11:14:28.462Z,2.53
2022-10-26T11:17:18.506Z,1.92
2022-10-26T11:19:48.170Z,2.05
2022-10-26T11:22:18.016Z,1.80
2022-10-26T11:25:16.241Z,1.92
2022-10-26T11:30:16.924Z,2.22
2022-10-26T11:32:44.725Z,2.08
2022-10-26T11:35:17.877Z,2.08
2022-10-26T11:37:50.396Z,2.28
2022-10-26T11:40:53.779Z,2.45
2022-10-26T11:43:40.636Z,2.40
2022-10-26T11:46:16.706Z,2.33
2022-10-26T11:49:00.569Z,2.12
2022-10-26T11:51:30.565Z,2.33
2022-10-26T11:53:58.655Z,2.30
2022-10-26T11:56:36.187Z,2.10
2022-10-26T12:01:34.917Z,2.42
2022-10-26T12:04:03.751Z,2.17
2022-10-26T12:06:32.686Z,2.62
2022-10-26T12:09:09.359Z,2.50
2022-10-26T12:11:39.471Z,2.67
2022-10-26T12:14:24.864Z,2.65
2022-10-26T12:16:57.294Z,2.40
2022-10-26T12:19:45.973Z,2.53
2022-10-26T12:22:15.021Z,2.35
2022-10-26T12:25:15.374Z,2.33
2022-10-26T12:27:42.435Z,2.50
2022-10-26T12:30:12.155Z,2.40
2022-10-26T12:32:41.535Z,2.60
2022-10-26T12:35:33.689Z,2.65
2022-10-26T12:38:02.490Z,2.60
2022-10-26T12:40:35.047Z,2.37
2022-10-26T12:43:13.820Z,2.90
2022-10-26T12:45:42.718Z,2.78
2022-10-26T12:48:38.818Z,2.70
2022-10-26T12:51:40.019Z,2.78
2022-10-26T12:54:35.690Z,2.70
2022-10-26T12:57:24.265Z,2.47
2022-10-26T13:00:06.202Z,2.83
2022-10-26T13:03:05.170Z,2.40
2022-10-26T13:06:09.968Z,2.62
2022-10-26T13:08:46.308Z,2.72
2022-10-26T13:11:24.851Z,2.72
2022-10-26T13:13:56.720Z,2.58
2022-10-26T13:16:25.066Z,2.80
2022-10-26T13:18:52.014Z,2.83
2022-10-26T13:21:21.259Z,2.72
2022-10-26T13:24:04.349Z,2.70
2022-10-26T13:26:32.342Z,2.75
2022-10-26T13:29:04.311Z,2.65
2022-10-26T13:31:34.535Z,2.72
2022-10-26T13:34:04.665Z,3.00
2022-10-26T13:36:39.279Z,2.55
2022-10-26T13:39:31.558Z,2.53
2022-10-26T13:41:59.584Z,3.30
2022-10-26T13:44:46.258Z,2.70
2022-10-26T13:47:36.736Z,2.25
2022-10-26T13:50:10.799Z,2.72
2022-10-26T13:52:44.565Z,2.87
2022-10-26T13:55:17.433Z,3.10
2022-10-26T13:57:47.006Z,2.83
2022-10-26T14:00:20.692Z,2.75
2022-10-26T14:02:48.428Z,2.90
2022-10-26T14:05:17.927Z,3.00
2022-10-26T14:07:58.666Z,3.40
2022-10-26T14:10:37.607Z,2.90
2022-10-26T14:13:17.053Z,2.80
2022-10-26T14:15:45.329Z,3.12
2022-10-26T14:18:23.479Z,3.05
2022-10-26T14:20:56.170Z,3.40
2022-10-26T14:23:50.150Z,3.25
2022-10-26T14:26:26.194Z,3.20
2022-10-26T14:28:58.258Z,2.92
2022-10-26T14:31:30.965Z,3.40
2022-10-26T14:33:59.755Z,3.72
2022-10-26T14:36:33.971Z,3.47
2022-10-26T14:39:05.207Z,3.60
2022-10-26T14:41:32.911Z,3.47
2022-10-26T14:44:00.488Z,3.42
2022-10-26T14:46:29.357Z,3.95
2022-10-26T14:48:58.103Z,5.47
2022-10-26T14:51:35.244Z,5.55
2022-10-26T14:56:36.757Z,4.30
2022-10-26T14:59:22.963Z,3.45
2022-10-26T15:02:16.819Z,3.17
2022-10-26T15:05:15.657Z,3.20
2022-10-26T15:07:44.747Z,3.10
2022-10-26T15:10:36.064Z,3.05
2022-10-26T15:13:33.367Z,3.12
2022-10-26T15:16:28.124Z,2.80
2022-10-26T15:18:59.031Z,3.15
2022-10-26T15:21:42.292Z,2.72
2022-10-26T15:24:27.589Z,3.00
2022-10-26T15:26:54.519Z,2.97
2022-10-26T15:29:39.512Z,3.00
2022-10-26T15:32:23.650Z,2.87
2022-10-26T15:35:07.222Z,2.83
2022-10-26T15:37:34.136Z,2.55
2022-10-26T15:40:01.251Z,3.20
2022-10-26T15:42:28.950Z,2.97
2022-10-26T15:44:59.731Z,3.08
2022-10-26T15:47:30.792Z,3.10
2022-10-26T15:49:57.634Z,2.97
2022-10-26T15:52:24.481Z,2.92
2022-10-26T15:54:52.400Z,2.92
2022-10-26T15:57:21.426Z,3.22
2022-10-26T15:59:48.523Z,2.95
2022-10-26T16:02:15.937Z,3.50
2022-10-26T16:04:42.900Z,3.40
2022-10-26T16:07:13.501Z,3.70
2022-10-26T16:09:41.273Z,3.45
2022-10-26T16:12:12.356Z,3.37
2022-10-26T16:15:00.580Z,3.75
2022-10-26T16:17:26.364Z,3.70
2022-10-26T16:19:53.233Z,3.58
2022-10-26T16:22:20.086Z,3.22
2022-10-26T16:24:47.964Z,3.60
2022-10-26T16:27:14.836Z,3.90
2022-10-26T16:29:41.664Z,3.42
2022-10-26T16:32:08.498Z,3.50
2022-10-26T16:34:35.327Z,4.00
2022-10-26T16:37:02.173Z,3.78
2022-10-26T16:39:29.015Z,4.28
2022-10-26T16:41:55.925Z,4.32
2022-10-26T16:44:22.773Z,3.92
2022-10-26T16:46:49.641Z,3.87
2022-10-26T16:49:16.548Z,4.03
2022-10-26T16:51:43.431Z,3.87
2022-10-26T16:54:10.279Z,4.10
2022-10-26T16:56:37.220Z,3.92
2022-10-26T16:59:04.146Z,4.28
2022-10-26T17:01:31.226Z,4.90
2022-10-26T17:03:58.225Z,3.97
2022-10-26T17:06:25.141Z,4.62
2022-10-26T17:08:51.968Z,4.68
2022-10-26T17:11:21.016Z,4.47
2022-10-26T17:13:48.382Z,4.97
2022-10-26T17:16:17.826Z,5.03
2022-10-26T17:18:45.181Z,4.90
2022-10-26T17:21:13.593Z,5.35
2022-10-26T17:23:40.487Z,5.68
2022-10-26T17:26:09.783Z,5.25
2022-10-26T17:28:37.269Z,5.70
2022-10-26T17:31:05.780Z,5.57
2022-10-26T17:33:36.239Z,5.12
2022-10-26T17:36:04.993Z,5.45
2022-10-26T17:38:33.300Z,5.55
2022-10-26T17:41:02.170Z,6.57
2022-10-26T17:43:33.261Z,6.30
2022-10-26T17:46:00.873Z,6.50
2022-10-26T17:48:28.744Z,6.00
2022-10-26T17:50:57.791Z,5.90
2022-10-26T17:53:24.745Z,6.50
2022-10-26T17:56:02.523Z,5.87
2022-10-26T17:58:29.626Z,5.85
2022-10-26T18:01:00.113Z,5.60
2022-10-26T18:03:26.963Z,6.25
2022-10-26T18:05:53.880Z,6.00
2022-10-26T18:08:21.757Z,5.97
2022-10-26T18:10:49.848Z,5.40
2022-10-26T18:13:17.361Z,5.97
2022-10-26T18:15:44.329Z,5.65
2022-10-26T18:18:11.591Z,5.80
2022-10-26T18:20:38.460Z,5.85
2022-10-26T18:23:05.424Z,5.95
2022-10-26T18:25:33.975Z,5.53
2022-10-26T18:28:00.904Z,5.80
2022-10-26T18:30:28.061Z,4.82
2022-10-26T18:32:54.955Z,5.43
2022-10-26T18:35:21.797Z,5.22
2022-10-26T18:37:49.101Z,5.80
2022-10-26T18:40:16.277Z,5.05
2022-10-26T18:42:43.129Z,5.30
2022-10-26T18:45:10.285Z,5.50
2022-10-26T18:47:37.127Z,5.03
2022-10-26T18:50:04.091Z,5.00
2022-10-26T18:52:30.969Z,5.68
2022-10-26T18:54:57.939Z,4.93
2022-10-26T18:57:27.189Z,4.60
2022-10-26T18:59:55.155Z,5.30
2022-10-26T19:02:23.177Z,5.07
2022-10-26T19:04:53.169Z,4.87
2022-10-26T19:07:20.373Z,4.90
2022-10-26T19:09:47.203Z,5.90
2022-10-26T19:12:14.047Z,5.20
2022-10-26T19:14:40.900Z,5.53
2022-10-26T19:17:07.831Z,5.25
2022-10-26T19:19:34.692Z,5.45
2022-10-26T19:22:01.639Z,5.35
2022-10-26T19:24:28.529Z,5.18
2022-10-26T19:26:56.777Z,5.43
2022-10-26T19:29:23.723Z,5.43
2022-10-26T19:31:53.596Z,5.62
2022-10-26T19:34:20.542Z,5.47
2022-10-26T19:36:47.780Z,5.25
2022-10-26T19:39:16.160Z,5.90
2022-10-26T19:41:43.679Z,5.60
2022-10-26T19:44:12.027Z,5.72
2022-10-26T19:46:39.780Z,6.00
2022-10-26T19:49:07.269Z,6.05
2022-10-26T19:51:34.135Z,6.30
2022-10-26T19:54:03.932Z,6.15
2022-10-26T19:56:32.538Z,6.57
2022-10-26T19:58:59.667Z,6.72
2022-10-26T20:01:26.589Z,6.62
2022-10-26T20:03:53.550Z,6.78
2022-10-26T20:06:20.463Z,5.32
2022-10-26T20:08:49.068Z,6.30
2022-10-26T20:11:17.657Z,6.18
2022-10-26T20:13:46.014Z,5.57
2022-10-26T20:16:13.463Z,5.72
2022-10-26T20:18:44.094Z,6.35
2022-10-26T20:21:14.901Z,5.75
2022-10-26T20:23:42.846Z,6.20
2022-10-26T20:26:11.853Z,6.35
2022-10-26T20:28:45.360Z,5.85
2022-10-26T20:31:12.703Z,6.70
2022-10-26T20:33:39.544Z,6.72
2022-10-26T20:36:06.734Z,6.62
2022-10-26T20:38:33.927Z,7.18
2022-10-26T20:41:03.697Z,6.32
2022-10-26T20:43:33.610Z,6.53
2022-10-26T20:46:00.802Z,7.03
2022-10-26T20:48:27.989Z,7.03
2022-10-26T20:51:04.078Z,6.45
2022-10-26T20:54:15.863Z,5.62
2022-10-26T20:56:42.905Z,6.15
2022-10-26T20:59:58.181Z,6.30
2022-10-26T21:02:25.051Z,6.60
2022-10-26T21:04:51.871Z,6.43
2022-10-26T21:07:18.721Z,7.00
2022-10-26T21:09:45.547Z,6.28
2022-10-26T21:12:12.450Z,7.28
2022-10-26T21:14:41.066Z,7.45
2022-10-26T21:17:08.429Z,6.72
2022-10-26T21:19:35.476Z,6.45
2022-10-26T21:22:02.557Z,6.37
2022-10-26T21:24:29.423Z,7.00
2022-10-26T21:26:56.349Z,6.25
2022-10-26T21:29:23.218Z,7.00
2022-10-26T21:31:50.087Z,7.40
2022-10-26T21:34:16.910Z,6.87
2022-10-26T21:36:43.810Z,6.87
2022-10-26T21:39:10.682Z,6.93
2022-10-26T21:41:37.936Z,6.95
2022-10-26T21:44:09.192Z,6.28
2022-10-26T21:46:38.430Z,6.35
2022-10-26T21:49:05.695Z,6.47
2022-10-26T21:51:32.602Z,7.80
2022-10-26T21:53:59.517Z,6.75
2022-10-26T21:56:26.340Z,7.22
2022-10-26T21:58:53.272Z,7.47
2022-10-26T22:01:21.942Z,7.82
2022-10-26T22:03:49.434Z,8.77
2022-10-26T22:08:50.245Z,9.88
2022-10-26T22:11:19.630Z,11.50
2022-10-26T22:13:47.231Z,12.32
2022-10-26T22:16:16.661Z,11.63
2022-10-26T22:18:45.093Z,11.25
2022-10-26T22:21:13.186Z,11.27
2022-10-26T22:23:41.541Z,11.50
2022-10-26T22:26:14.663Z,11.15
2022-10-26T22:28:43.153Z,9.70
2022-10-26T22:31:15.465Z,11.40
2022-10-26T22:33:42.794Z,10.85
2022-10-26T22:36:12.692Z,11.68
2022-10-26T22:38:39.832Z,11.57
2022-10-26T22:41:06.953Z,10.68
2022-10-26T22:43:34.033Z,11.95
2022-10-26T22:46:07.798Z,11.80
2022-10-26T22:48:35.454Z,10.52
2022-10-26T22:51:07.758Z,10.10
2022-10-26T22:53:34.580Z,9.82
2022-10-26T22:56:02.331Z,9.95
2022-10-26T22:58:29.238Z,9.48
2022-10-26T23:01:06.234Z,9.63
2022-10-26T23:06:00.104Z,9.23
2022-10-26T23:08:27.430Z,10.30
2022-10-26T23:10:54.447Z,9.15
2022-10-26T23:13:21.339Z,9.60
2022-10-26T23:15:48.171Z,8.50
2022-10-26T23:18:15.060Z,8.00
2022-10-26T23:20:41.911Z,8.45
2022-10-26T23:23:08.777Z,7.78
2022-10-26T23:25:35.604Z,7.40
2022-10-26T23:28:02.456Z,6.62
2022-10-26T23:30:29.351Z,8.05
2022-10-26T23:32:56.573Z,7.93
2022-10-26T23:35:23.572Z,7.70
2022-10-26T23:37:50.403Z,7.40
2022-10-26T23:40:17.341Z,7.40
2022-10-26T23:42:44.214Z,6.93
2022-10-26T23:45:11.172Z,6.37
2022-10-26T23:47:38.043Z,6.12
2022-10-26T23:50:05.189Z,5.95
2022-10-26T23:52:32.028Z,6.28
2022-10-26T23:54:58.880Z,6.78
2022-10-26T23:57:25.794Z,6.78
2022-10-26T23:59:53.246Z,5.57
